地図

経路データ

SID SEASON NUMBER BASIN SUBBASIN NAME ISO_TIME NATURE LAT LON WMO_WIND WMO_PRES WMO_AGENCY TRACK_TYPE DIST2LAND LANDFALL IFLAG USA_AGENCY USA_ATCF_ID USA_LAT USA_LON USA_RECORD USA_STATUS USA_WIND USA_PRES USA_SSHS USA_R34_NE USA_R34_SE USA_R34_SW USA_R34_NW USA_R50_NE USA_R50_SE USA_R50_SW USA_R50_NW USA_R64_NE USA_R64_SE USA_R64_SW USA_R64_NW USA_POCI USA_ROCI USA_RMW USA_EYE TOKYO_LAT TOKYO_LON TOKYO_GRADE TOKYO_WIND TOKYO_PRES TOKYO_R50_DIR TOKYO_R50_LONG TOKYO_R50_SHORT TOKYO_R30_DIR TOKYO_R30_LONG TOKYO_R30_SHORT TOKYO_LAND CMA_LAT CMA_LON CMA_CAT CMA_WIND CMA_PRES HKO_LAT HKO_LON HKO_CAT HKO_WIND HKO_PRES NEWDELHI_LAT NEWDELHI_LON NEWDELHI_GRADE NEWDELHI_WIND NEWDELHI_PRES NEWDELHI_CI NEWDELHI_DP NEWDELHI_POCI REUNION_LAT REUNION_LON REUNION_TYPE REUNION_WIND REUNION_PRES REUNION_TNUM REUNION_CI REUNION_RMW REUNION_R34_NE REUNION_R34_SE REUNION_R34_SW REUNION_R34_NW REUNION_R50_NE REUNION_R50_SE REUNION_R50_SW REUNION_R50_NW REUNION_R64_NE REUNION_R64_SE REUNION_R64_SW REUNION_R64_NW BOM_LAT BOM_LON BOM_TYPE BOM_WIND BOM_PRES BOM_TNUM BOM_CI BOM_RMW BOM_R34_NE BOM_R34_SE BOM_R34_SW BOM_R34_NW BOM_R50_NE BOM_R50_SE BOM_R50_SW BOM_R50_NW BOM_R64_NE BOM_R64_SE BOM_R64_SW BOM_R64_NW BOM_ROCI BOM_POCI BOM_EYE BOM_POS_METHOD BOM_PRES_METHOD NADI_LAT NADI_LON NADI_CAT NADI_WIND NADI_PRES WELLINGTON_LAT WELLINGTON_LON WELLINGTON_WIND WELLINGTON_PRES DS824_LAT DS824_LON DS824_STAGE DS824_WIND DS824_PRES TD9636_LAT TD9636_LON TD9636_STAGE TD9636_WIND TD9636_PRES TD9635_LAT TD9635_LON TD9635_WIND TD9635_PRES TD9635_ROCI NEUMANN_LAT NEUMANN_LON NEUMANN_CLASS NEUMANN_WIND NEUMANN_PRES MLC_LAT MLC_LON MLC_CLASS MLC_WIND MLC_PRES USA_GUST BOM_GUST BOM_GUST_PER REUNION_GUST REUNION_GUST_PER USA_SEAHGT USA_SEARAD_NE USA_SEARAD_SE USA_SEARAD_SW USA_SEARAD_NW STORM_SPEED STORM_DIR
1876046S18062 1876 5 SI MM NOT_NAMED 1876-02-14 18:00:00 NR -18.3000 61.8000 main 475 432 __________O___ -1 -18.3000 61.8000 7 9 261
1876046S18062 1876 5 SI MM NOT_NAMED 1876-02-14 21:00:00 NR -18.3693 61.3501 main 432 386 __________P___ -1 -18.3693 61.3501 7 9 261
1876046S18062 1876 5 SI MM NOT_NAMED 1876-02-15 00:00:00 NR -18.4405 60.8901 main 386 335 __________P___ -1 -18.4405 60.8901 7 9 261
1876046S18062 1876 5 SI MM NOT_NAMED 1876-02-15 03:00:00 NR -18.5165 60.4100 main 335 285 __________P___ -1 -18.5165 60.4100 7 10 260
1876046S18062 1876 5 SI MM NOT_NAMED 1876-02-15 06:00:00 NR -18.6000 59.9000 main 285 237 __________O___ -1 -18.6000 59.9000 7 10 260
1876046S18062 1876 5 SI MM NOT_NAMED 1876-02-15 09:00:00 NR -18.6927 59.3537 main 237 185 __________P___ -1 -18.6927 59.3537 7 11 260
1876046S18062 1876 5 SI MM NOT_NAMED 1876-02-15 12:00:00 NR -18.7923 58.7799 main 185 144 __________P___ -1 -18.7923 58.7799 7 11 260
1876046S18062 1876 5 SI MM NOT_NAMED 1876-02-15 15:00:00 NR -18.8957 58.1911 main 144 123 __________P___ -1 -18.8957 58.1911 7 11 259
1876046S18062 1876 5 SI MM NOT_NAMED 1876-02-15 18:00:00 NR -19.0000 57.6000 main 123 113 __________O___ -1 -19.0000 57.6000 7 11 259
1876046S18062 1876 5 SI MM NOT_NAMED 1876-02-15 21:00:00 NR -19.1038 57.0128 main 123 123 __________P___ -1 -19.1038 57.0128 7 11 259
1876046S18062 1876 5 SI MM NOT_NAMED 1876-02-16 00:00:00 NR -19.2072 56.4275 main 152 152 __________P___ -1 -19.2072 56.4275 7 11 259
1876046S18062 1876 5 SI MM NOT_NAMED 1876-02-16 03:00:00 NR -19.3070 55.8534 main 189 178 __________P___ -1 -19.3070 55.8534 7 11 260
1876046S18062 1876 5 SI MM NOT_NAMED 1876-02-16 06:00:00 NR -19.4000 55.3000 main 178 172 __________O___ -1 -19.4000 55.3000 7 10 261
1876046S18062 1876 5 SI MM NOT_NAMED 1876-02-16 09:00:00 NR -19.4736 54.7659 main 175 175 __________P___ -1 -19.4736 54.7659 7 10 262
1876046S18062 1876 5 SI MM NOT_NAMED 1876-02-16 12:00:00 NR -19.5419 54.2545 main 197 194 __________P___ -1 -19.5419 54.2545 7 10 262
1876046S18062 1876 5 SI MM NOT_NAMED 1876-02-16 15:00:00 NR -19.6143 53.7659 main 221 221 __________P___ -1 -19.6143 53.7659 7 9 260
1876046S18062 1876 5 SI MM NOT_NAMED 1876-02-16 18:00:00 NR -19.7000 53.3000 main 252 252 __________O___ -1 -19.7000 53.3000 7 9 257
1876046S18062 1876 5 SI MM NOT_NAMED 1876-02-16 21:00:00 NR -19.8099 52.8615 main 280 280 __________P___ -1 -19.8099 52.8615 7 8 254
1876046S18062 1876 5 SI MM NOT_NAMED 1876-02-17 00:00:00 NR -19.9340 52.4423 main 320 316 __________P___ -1 -19.9340 52.4423 7 8 252
1876046S18062 1876 5 SI MM NOT_NAMED 1876-02-17 03:00:00 NR -20.0662 52.0270 main 327 293 __________P___ -1 -20.0662 52.0270 7 8 251
1876046S18062 1876 5 SI MM NOT_NAMED 1876-02-17 06:00:00 NR -20.2000 51.6000 main 293 252 __________O___ -1 -20.2000 51.6000 7 9 253
1876046S18062 1876 5 SI MM NOT_NAMED 1876-02-17 09:00:00 NR -20.3249 51.1311 main 242 203 __________P___ -1 -20.3249 51.1311 7 9 254
1876046S18062 1876 5 SI MM NOT_NAMED 1876-02-17 12:00:00 NR -20.4500 50.6498 main 193 160 __________P___ -1 -20.4500 50.6498 7 9 255
1876046S18062 1876 5 SI MM NOT_NAMED 1876-02-17 15:00:00 NR -20.5749 50.1686 main 160 118 __________P___ -1 -20.5749 50.1686 7 9 254
1876046S18062 1876 5 SI MM NOT_NAMED 1876-02-17 18:00:00 NR -20.7000 49.7000 main 118 85 __________O___ -1 -20.7000 49.7000 7 9 254
1876046S18062 1876 5 SI MM NOT_NAMED 1876-02-17 21:00:00 NR -20.8252 49.2534 main 85 41 __________P___ -1 -20.8252 49.2534 7 9 253
1876046S18062 1876 5 SI MM NOT_NAMED 1876-02-18 00:00:00 NR -20.9505 48.8255 main 41 10 __________P___ -1 -20.9505 48.8255 7 8 252
1876046S18062 1876 5 SI MM NOT_NAMED 1876-02-18 03:00:00 NR -21.0755 48.4099 main 10 0 __________P___ -1 -21.0755 48.4099 7 8 252
1876046S18062 1876 5 SI MM NOT_NAMED 1876-02-18 06:00:00 NR -21.2000 48.0000 main 0 __________O___ -1 -21.2000 48.0000 7 8 252

IBTrACS Databaseについて

本データベースは、米国NOAAが公開する1842年以降の世界の熱帯低気圧のベストトラックデータアーカイブInternational Best Track Archive for Climate Stewardship (IBTrACS)を、ウェブで閲覧しやすい形式に変換したものです。

最終更新日:2021-11-26